Time;durP1;ratioP1;P1;durP2;ratioP2;P2;SDS_P1;SDS_P2;PMS_P1;PMS_P2;Temp;Humidity;BMP_temperature;BMP_pressure;BME280_temperature;BME280_humidity;BME280_pressure;Samples;Min_cycle;Max_cycle;Signal;HPM_P1;HPM_P2
2023/05/16 00:00:33;;;;;;;;;;;;;;;19.86;66.20;100476.41;7396860;19;1501;-48
2023/05/16 00:03:02;;;;;;;;;;;;;;;19.90;66.03;100492.22;7397657;19;1032;-47
2023/05/16 00:05:30;;;;;;;;;;;;;;;19.88;66.10;100492.38;7396397;19;1480;-48
2023/05/16 00:08:01;;;;;;;;;;;;;;;19.84;66.38;100499.84;7396561;19;1478;-47
2023/05/16 00:10:30;;;;;;;;;;;;;;;19.88;66.19;100488.84;7396672;19;1473;-48
2023/05/16 00:13:00;;;;;;;;;;;;;;;19.95;65.87;100476.50;7396679;19;1219;-48
2023/05/16 00:15:29;;;;;;;;;;;;;;;19.88;66.11;100462.84;7396948;19;1251;-48
2023/05/16 00:17:58;;;;;;;;;;;;;;;19.92;65.93;100466.09;7396924;19;1559;-47
2023/05/16 00:20:26;;;;;;;;;;;;;;;19.93;65.98;100465.91;7395540;19;1486;-47
2023/05/16 00:22:55;;;;;;;;;;;;;;;19.91;66.10;100450.97;7397458;19;1466;-48
2023/05/16 00:25:25;;;;;;;;;;;;;;;19.88;66.21;100462.00;7397228;19;1544;-47
2023/05/16 00:27:54;;;;;;;;;;;;;;;19.89;66.06;100469.06;7396198;19;1623;-47
2023/05/16 00:30:22;;;;;;;;;;;;;;;19.91;65.93;100472.44;7395404;19;1863;-48
2023/05/16 00:32:51;;;;;;;;;;;;;;;19.87;66.17;100469.19;7398006;19;1285;-48
2023/05/16 00:35:19;;;;;;;;;;;;;;;19.85;65.96;100469.34;7396850;19;1310;-47
2023/05/16 00:37:47;;;;;;;;;;;;;;;19.86;66.19;100492.50;7398632;19;1244;-48
2023/05/16 00:40:15;;;;;;;;;;;;;;;19.90;65.94;100476.97;7396806;19;1660;-48
2023/05/16 00:42:46;;;;;;;;;;;;;;;19.86;66.15;100475.56;7397139;19;1651;-48
2023/05/16 00:45:15;;;;;;;;;;;;;;;19.81;66.15;100472.47;7396738;19;1537;-47
2023/05/16 00:47:43;;;;;;;;;;;;;;;19.83;66.00;100479.38;7396235;19;1526;-47
2023/05/16 00:50:12;;;;;;;;;;;;;;;19.83;66.19;100484.75;7394235;19;1862;-47
2023/05/16 00:52:40;;;;;;;;;;;;;;;19.82;65.97;100474.19;7395640;19;1545;-48
2023/05/16 00:55:09;;;;;;;;;;;;;;;19.82;66.40;100499.16;7396087;19;1285;-48
2023/05/16 00:57:38;;;;;;;;;;;;;;;19.82;66.38;100496.47;7395514;19;1273;-47
2023/05/16 01:00:11;;;;;;;;;;;;;;;19.76;66.49;100497.06;7396215;19;1172;-47
2023/05/16 01:02:39;;;;;;;;;;;;;;;19.72;66.44;100484.94;7396956;19;1303;-48
2023/05/16 01:05:09;;;;;;;;;;;;;;;19.76;66.28;100472.94;7396492;19;1549;-48
2023/05/16 01:07:37;;;;;;;;;;;;;;;19.76;66.46;100504.28;7396856;19;1501;-48
2023/05/16 01:10:07;;;;;;;;;;;;;;;19.78;66.42;100497.75;7393975;19;1846;-47
2023/05/16 01:12:39;;;;;;;;;;;;;;;19.74;66.37;100504.41;7396064;19;1600;-48
2023/05/16 01:15:14;;;;;;;;;;;;;;;19.74;66.39;100492.84;7396433;19;1600;-48
2023/05/16 01:17:47;;;;;;;;;;;;;;;19.74;66.51;100493.69;7396288;19;1211;-48
2023/05/16 01:20:19;;;;;;;;;;;;;;;19.75;66.53;100500.72;7396133;19;1441;-47
2023/05/16 01:22:53;;;;;;;;;;;;;;;19.75;66.41;100487.31;7396074;19;1225;-47
2023/05/16 01:25:33;;;;;;;;;;;;;;;19.76;66.23;100491.69;7395324;19;1255;-48
2023/05/16 01:28:04;;;;;;;;;;;;;;;19.74;66.23;100488.31;7394516;19;1598;-47
2023/05/16 01:30:34;;;;;;;;;;;;;;;19.73;66.41;100489.31;7392831;19;1844;-48
2023/05/16 01:33:03;;;;;;;;;;;;;;;19.82;66.30;100484.91;7394661;19;1465;-48
2023/05/16 01:35:32;;;;;;;;;;;;;;;19.77;66.35;100479.97;7393661;19;1228;-48
2023/05/16 01:38:04;;;;;;;;;;;;;;;19.79;66.18;100464.56;7395558;19;1187;-48
2023/05/16 01:40:37;;;;;;;;;;;;;;;19.78;66.26;100484.34;7393040;19;1270;-47
2023/05/16 01:43:11;;;;;;;;;;;;;;;19.72;66.42;100490.31;7393929;19;1560;-48
2023/05/16 01:45:41;;;;;;;;;;;;;;;19.72;66.65;100482.25;7393656;19;1274;-48
2023/05/16 01:48:11;;;;;;;;;;;;;;;20.39;64.86;100465.94;7393948;19;1402;-48
2023/05/16 01:50:40;;;;;;;;;;;;;;;20.75;64.06;100471.34;7391202;19;1847;-48
2023/05/16 01:53:10;;;;;;;;;;;;;;;20.93;63.48;100456.06;7394359;19;1168;-48
2023/05/16 01:55:46;;;;;;;;;;;;;;;20.76;63.89;100459.59;7393540;19;1560;-48
2023/05/16 01:58:19;;;;;;;;;;;;;;;20.71;64.08;100469.97;7393380;19;1591;-48
2023/05/16 02:00:47;;;;;;;;;;;;;;;20.62;64.57;100461.81;7393204;19;1473;-48
2023/05/16 02:03:16;;;;;;;;;;;;;;;20.69;64.22;100456.72;7393915;19;1481;-48
2023/05/16 02:05:44;;;;;;;;;;;;;;;20.81;64.00;100455.47;7397106;19;1028;-48
2023/05/16 02:08:12;;;;;;;;;;;;;;;20.95;63.93;100461.25;7401229;19;1878;-48
2023/05/16 02:10:41;;;;;;;;;;;;;;;21.15;63.41;100445.78;7398054;19;1853;-48
2023/05/16 02:13:09;;;;;;;;;;;;;;;21.18;63.28;100457.06;7400286;19;1545;-48
2023/05/16 02:15:40;;;;;;;;;;;;;;;21.18;63.43;100456.25;7400540;19;1612;-48
2023/05/16 02:18:08;;;;;;;;;;;;;;;21.20;63.29;100455.06;7400613;19;1473;-48
2023/05/16 02:20:37;;;;;;;;;;;;;;;21.20;63.37;100451.53;7399846;19;1476;-48
2023/05/16 02:23:05;;;;;;;;;;;;;;;21.21;63.12;100439.81;7400942;19;1219;-48
2023/05/16 02:25:33;;;;;;;;;;;;;;;21.19;63.32;100417.59;7401249;19;1647;-48
2023/05/16 02:28:02;;;;;;;;;;;;;;;21.25;63.09;100430.41;7400028;19;1235;-48
2023/05/16 02:30:30;;;;;;;;;;;;;;;21.23;63.12;100422.50;7398497;19;1881;-48
2023/05/16 02:33:01;;;;;;;;;;;;;;;21.31;63.16;100439.66;7402096;19;1103;-48
2023/05/16 02:35:29;;;;;;;;;;;;;;;21.30;63.24;100444.22;7400070;19;1303;-48
2023/05/16 02:37:58;;;;;;;;;;;;;;;21.35;63.00;100449.97;7401760;19;1257;-48
2023/05/16 02:40:26;;;;;;;;;;;;;;;21.35;63.08;100441.91;7399998;19;1606;-48
2023/05/16 02:42:54;;;;;;;;;;;;;;;21.34;62.98;100436.69;7400405;19;1302;-48
2023/05/16 02:45:23;;;;;;;;;;;;;;;21.37;63.02;100437.22;7400884;19;1434;-48
2023/05/16 02:47:51;;;;;;;;;;;;;;;21.34;63.01;100448.28;7400157;19;1595;-48
2023/05/16 02:50:22;;;;;;;;;;;;;;;21.40;62.93;100453.00;7397978;19;1863;-48
2023/05/16 02:52:51;;;;;;;;;;;;;;;21.40;62.88;100450.31;7399836;19;1622;-48
2023/05/16 02:55:19;;;;;;;;;;;;;;;21.45;62.75;100458.81;7399239;19;1580;-48
2023/05/16 02:57:47;;;;;;;;;;;;;;;21.42;63.00;100448.31;7399625;19;1604;-48
2023/05/16 03:00:16;;;;;;;;;;;;;;;21.44;62.85;100440.13;7398429;19;1175;-48
2023/05/16 03:02:44;;;;;;;;;;;;;;;21.51;62.78;100440.34;7399402;19;1154;-48
2023/05/16 03:05:13;;;;;;;;;;;;;;;21.53;62.82;100443.72;7398890;19;1589;-47
2023/05/16 03:07:44;;;;;;;;;;;;;;;21.53;62.72;100439.19;7398893;19;1557;-48
2023/05/16 03:10:12;;;;;;;;;;;;;;;21.53;62.83;100425.72;7397327;19;1853;-48
2023/05/16 03:12:41;;;;;;;;;;;;;;;21.58;62.69;100438.69;7398159;19;1532;-48
2023/05/16 03:15:09;;;;;;;;;;;;;;;21.59;62.55;100443.09;7398801;19;1437;-48
2023/05/16 03:17:38;;;;;;;;;;;;;;;21.62;62.53;100446.25;7397429;19;1636;-48
2023/05/16 03:20:08;;;;;;;;;;;;;;;21.60;62.58;100439.38;7397985;19;1547;-48
2023/05/16 03:22:37;;;;;;;;;;;;;;;21.67;62.43;100445.81;7397827;19;1545;-48
2023/05/16 03:25:08;;;;;;;;;;;;;;;21.65;62.52;100439.75;7398198;19;1691;-48
2023/05/16 03:27:36;;;;;;;;;;;;;;;21.65;62.52;100445.13;7397740;19;1563;-48
2023/05/16 03:30:04;;;;;;;;;;;;;;;21.65;62.56;100454.03;7397924;19;1857;-48
2023/05/16 03:32:33;;;;;;;;;;;;;;;21.67;62.48;100445.81;7398522;19;1374;-48
2023/05/16 03:35:02;;;;;;;;;;;;;;;21.67;62.45;100444.97;7397479;19;1599;-49
2023/05/16 03:37:30;;;;;;;;;;;;;;;21.74;62.59;100424.47;7398119;19;1529;-48
2023/05/16 03:39:59;;;;;;;;;;;;;;;21.67;62.49;100421.59;7397698;19;1544;-48
2023/05/16 03:42:30;;;;;;;;;;;;;;;21.71;62.38;100433.72;7397531;19;1536;-48
2023/05/16 03:44:58;;;;;;;;;;;;;;;21.73;62.45;100418.25;7397449;19;1457;-48
2023/05/16 03:47:29;;;;;;;;;;;;;;;21.72;62.36;100438.06;7398355;19;1489;-48
2023/05/16 03:49:58;;;;;;;;;;;;;;;21.79;62.17;100435.59;7396885;19;1859;-48
2023/05/16 03:52:26;;;;;;;;;;;;;;;21.79;62.37;100435.59;7397826;19;1574;-48
2023/05/16 03:54:54;;;;;;;;;;;;;;;21.85;62.22;100443.03;7398462;19;1643;-48
2023/05/16 03:57:23;;;;;;;;;;;;;;;21.81;62.28;100429.03;7397497;19;1242;-48
2023/05/16 03:59:54;;;;;;;;;;;;;;;21.79;62.35;100432.91;7397560;19;1544;-48
2023/05/16 04:02:22;;;;;;;;;;;;;;;21.44;63.29;100435.56;7397566;19;1327;-48
2023/05/16 04:04:50;;;;;;;;;;;;;;;21.18;64.09;100446.31;7397211;19;1294;-48
2023/05/16 04:07:18;;;;;;;;;;;;;;;21.32;63.69;100438.69;7396937;19;1531;-48
2023/05/16 04:09:47;;;;;;;;;;;;;;;21.27;63.27;100436.47;7395254;19;1863;-48
2023/05/16 04:12:15;;;;;;;;;;;;;;;21.24;63.58;100450.22;7395674;19;1548;-47
2023/05/16 04:14:43;;;;;;;;;;;;;;;20.99;64.08;100446.50;7391927;19;1540;-52
2023/05/16 04:17:14;;;;;;;;;;;;;;;20.93;64.20;100428.31;7393453;19;1126;-53
2023/05/16 04:19:42;;;;;;;;;;;;;;;20.71;65.32;100432.34;7398272;19;1035;-60
2023/05/16 04:22:11;;;;;;;;;;;;;;;20.92;64.75;100435.53;7396826;19;1798;-59
2023/05/16 04:24:39;;;;;;;;;;;;;;;20.80;64.49;100439.50;7396055;19;1277;-53
2023/05/16 04:27:08;;;;;;;;;;;;;;;20.74;64.93;100445.47;7395132;19;1765;-53
2023/05/16 04:29:37;;;;;;;;;;;;;;;20.89;64.83;100445.75;7393702;19;1854;-53
2023/05/16 04:32:06;;;;;;;;;;;;;;;20.90;64.78;100424.09;7396275;19;1173;-48
2023/05/16 04:34:37;;;;;;;;;;;;;;;20.80;65.23;100439.50;7393055;19;1266;-48
2023/05/16 04:37:07;;;;;;;;;;;;;;;20.82;64.86;100432.13;7392941;19;1537;-46
2023/05/16 04:39:35;;;;;;;;;;;;;;;20.65;64.88;100418.56;7393444;19;1870;-48
2023/05/16 04:42:03;;;;;;;;;;;;;;;20.65;64.59;100415.00;7393399;19;1452;-47
2023/05/16 04:44:33;;;;;;;;;;;;;;;20.41;65.88;100415.59;7392162;19;1543;-47
2023/05/16 04:47:01;;;;;;;;;;;;;;;20.26;66.38;100417.97;7394871;19;1552;-47
2023/05/16 04:49:30;;;;;;;;;;;;;;;20.24;65.79;100419.97;7392466;19;1208;-47
2023/05/16 04:52:01;;;;;;;;;;;;;;;20.42;64.70;100417.28;7393034;19;2233;-47
2023/05/16 04:54:29;;;;;;;;;;;;;;;20.56;64.20;100429.34;7394332;19;1959;-47
2023/05/16 04:56:57;;;;;;;;;;;;;;;20.59;64.18;100429.91;7396508;19;1856;-47
2023/05/16 04:59:25;;;;;;;;;;;;;;;20.67;63.93;100423.75;7396108;19;1631;-47
2023/05/16 05:01:54;;;;;;;;;;;;;;;20.74;63.68;100427.50;7394396;19;1776;-47
2023/05/16 05:04:22;;;;;;;;;;;;;;;20.68;64.25;100428.13;7395884;19;1777;-47
2023/05/16 05:06:51;;;;;;;;;;;;;;;20.45;65.11;100436.63;7392364;19;1532;-47
2023/05/16 05:09:22;;;;;;;;;;;;;;;20.34;65.67;100420.75;7395220;19;1454;-47
2023/05/16 05:11:50;;;;;;;;;;;;;;;20.20;66.03;100430.16;7389105;19;1849;-48
2023/05/16 05:14:18;;;;;;;;;;;;;;;20.46;64.29;100416.81;7391837;19;1623;-48
2023/05/16 05:16:47;;;;;;;;;;;;;;;20.34;63.92;100431.47;7392965;19;1611;-48
2023/05/16 05:19:15;;;;;;;;;;;;;;;20.33;65.21;100407.47;7392283;19;966;-48
2023/05/16 05:21:43;;;;;;;;;;;;;;;20.48;64.57;100416.69;7390254;19;1856;-47
2023/05/16 05:24:12;;;;;;;;;;;;;;;20.59;64.95;100437.97;7390532;19;1868;-48
2023/05/16 05:26:43;;;;;;;;;;;;;;;20.55;64.88;100431.19;7390509;19;1576;-48
2023/05/16 05:29:11;;;;;;;;;;;;;;;20.56;65.03;100430.19;7388341;19;1799;-48
2023/05/16 05:31:39;;;;;;;;;;;;;;;20.67;64.85;100423.75;7387555;19;1868;-48
2023/05/16 05:34:08;;;;;;;;;;;;;;;20.62;65.04;100424.22;7389088;19;1670;-48
2023/05/16 05:36:36;;;;;;;;;;;;;;;20.66;64.99;100420.22;7389170;19;1579;-48
2023/05/16 05:39:05;;;;;;;;;;;;;;;20.69;65.04;100434.34;7395315;19;1595;-48
2023/05/16 05:41:33;;;;;;;;;;;;;;;20.64;65.06;100432.97;7402235;19;1568;-48
2023/05/16 05:44:04;;;;;;;;;;;;;;;20.69;65.18;100439.72;7403755;19;1020;-48
2023/05/16 05:46:33;;;;;;;;;;;;;;;20.60;65.38;100417.31;7401894;19;1984;-48
2023/05/16 05:49:01;;;;;;;;;;;;;;;20.55;65.43;100433.88;7401117;19;2000;-48
2023/05/16 05:51:29;;;;;;;;;;;;;;;20.65;65.35;100428.44;7399788;19;1871;-48
2023/05/16 05:53:58;;;;;;;;;;;;;;;20.57;65.41;100423.81;7402308;19;1695;-48
2023/05/16 05:56:26;;;;;;;;;;;;;;;20.62;65.71;100439.50;7402325;19;1435;-48
2023/05/16 05:58:54;;;;;;;;;;;;;;;20.57;65.50;100431.88;7401909;19;1809;-48
2023/05/16 06:01:26;;;;;;;;;;;;;;;20.55;65.56;100417.75;7402220;19;1242;-48
2023/05/16 06:03:54;;;;;;;;;;;;;;;20.65;65.20;100434.66;7403168;19;1175;-48
2023/05/16 06:06:22;;;;;;;;;;;;;;;20.74;65.14;100427.50;7402842;19;1032;-48
2023/05/16 06:08:50;;;;;;;;;;;;;;;20.72;64.87;100432.19;7402045;19;1865;-49
2023/05/16 06:11:19;;;;;;;;;;;;;;;20.76;65.16;100435.41;7400213;19;1849;-48
2023/05/16 06:13:47;;;;;;;;;;;;;;;20.76;64.97;100441.63;7401205;19;1730;-48
2023/05/16 06:16:15;;;;;;;;;;;;;;;20.64;65.50;100432.13;7400447;19;1484;-48
2023/05/16 06:18:47;;;;;;;;;;;;;;;20.54;65.98;100434.88;7400287;19;1584;-48
2023/05/16 06:21:15;;;;;;;;;;;;;;;20.46;65.93;100424.88;7401377;19;1718;-48
2023/05/16 06:23:44;;;;;;;;;;;;;;;20.44;66.25;100429.56;7400870;19;1596;-48
2023/05/16 06:26:13;;;;;;;;;;;;;;;20.49;66.00;100428.25;7397919;19;1527;-47
2023/05/16 06:28:41;;;;;;;;;;;;;;;20.56;65.89;100424.81;7396627;19;1312;-47
2023/05/16 06:31:09;;;;;;;;;;;;;;;20.68;65.69;100443.41;7399057;19;1850;-47
2023/05/16 06:33:38;;;;;;;;;;;;;;;20.65;65.48;100418.56;7400569;19;1258;-48
2023/05/16 06:36:09;;;;;;;;;;;;;;;20.61;66.10;100433.28;7399151;19;1500;-48
2023/05/16 06:38:37;;;;;;;;;;;;;;;20.55;66.93;100422.25;7399875;19;1793;-47
2023/05/16 06:41:05;;;;;;;;;;;;;;;20.57;66.67;100415.75;7393333;19;1527;-47
2023/05/16 06:43:34;;;;;;;;;;;;;;;20.63;66.21;100425.91;7396851;19;1750;-47
2023/05/16 06:46:02;;;;;;;;;;;;;;;20.58;66.03;100428.19;7393622;19;1555;-47
2023/05/16 06:48:31;;;;;;;;;;;;;;;20.53;65.76;100417.06;7393990;19;1406;-47
2023/05/16 06:50:59;;;;;;;;;;;;;;;20.46;65.51;100422.19;7394250;19;1859;-47
2023/05/16 06:53:30;;;;;;;;;;;;;;;20.36;65.44;100412.53;7396405;19;1377;-47
2023/05/16 06:55:58;;;;;;;;;;;;;;;20.43;65.35;100425.19;7394680;19;1492;-47
2023/05/16 06:58:26;;;;;;;;;;;;;;;20.56;65.39;100411.38;7396435;19;1468;-47
2023/05/16 07:00:55;;;;;;;;;;;;;;;20.56;65.29;100403.31;7395215;19;1397;-48
2023/05/16 07:03:23;;;;;;;;;;;;;;;20.50;65.11;100406.63;7396588;19;1520;-47
2023/05/16 07:05:52;;;;;;;;;;;;;;;20.54;64.21;100394.56;7397612;19;1282;-48
2023/05/16 07:08:20;;;;;;;;;;;;;;;20.53;64.17;100406.31;7394998;19;1298;-47
2023/05/16 07:10:51;;;;;;;;;;;;;;;20.41;64.63;100404.84;7391354;19;1862;-46
2023/05/16 07:13:19;;;;;;;;;;;;;;;20.43;64.40;100403.72;7393814;19;1541;-46
2023/05/16 07:15:47;;;;;;;;;;;;;;;20.34;64.76;100422.59;7393244;19;1306;-46
2023/05/16 07:18:16;;;;;;;;;;;;;;;20.42;64.82;100411.91;7397370;19;1553;-46
2023/05/16 07:20:44;;;;;;;;;;;;;;;20.42;64.93;100404.69;7398141;19;1378;-46
2023/05/16 07:23:13;;;;;;;;;;;;;;;20.40;65.15;100408.53;7394932;19;1807;-46
2023/05/16 07:25:41;;;;;;;;;;;;;;;20.44;64.82;100410.75;7396388;19;995;-47
2023/05/16 07:28:12;;;;;;;;;;;;;;;20.50;64.36;100414.69;7393585;19;1603;-46
2023/05/16 07:30:40;;;;;;;;;;;;;;;20.52;64.37;100411.84;7398197;19;1859;-47
2023/05/16 07:33:08;;;;;;;;;;;;;;;20.47;64.06;100417.66;7395072;19;1734;-46
2023/05/16 07:35:37;;;;;;;;;;;;;;;20.33;64.37;100428.94;7394007;19;1420;-48
2023/05/16 07:38:06;;;;;;;;;;;;;;;20.49;63.99;100421.03;7395354;19;1024;-47
2023/05/16 07:40:34;;;;;;;;;;;;;;;20.56;63.41;100432.88;7393069;19;1915;-46
2023/05/16 07:43:03;;;;;;;;;;;;;;;20.49;63.41;100423.72;7393790;19;1835;-47
2023/05/16 07:45:34;;;;;;;;;;;;;;;20.44;63.33;100420.66;7393200;19;1532;-46
2023/05/16 07:48:02;;;;;;;;;;;;;;;20.35;63.41;100408.16;7395820;19;1266;-47
2023/05/16 07:50:30;;;;;;;;;;;;;;;20.34;63.34;100406.47;7397208;19;1857;-47
2023/05/16 07:52:58;;;;;;;;;;;;;;;20.36;63.28;100420.59;7396199;19;1844;-47
2023/05/16 07:55:27;;;;;;;;;;;;;;;20.46;62.88;100418.66;7399018;19;1738;-48
2023/05/16 07:57:55;;;;;;;;;;;;;;;20.40;63.08;100420.13;7398836;19;1788;-47
2023/05/16 08:00:24;;;;;;;;;;;;;;;20.36;62.67;100423.28;7399371;19;1031;-47
2023/05/16 08:02:55;;;;;;;;;;;;;;;20.48;62.72;100415.84;7397659;19;1873;-47
2023/05/16 08:05:23;;;;;;;;;;;;;;;20.42;62.66;100436.09;7395995;19;1452;-47
2023/05/16 08:07:52;;;;;;;;;;;;;;;20.40;62.37;100427.34;7397281;19;1773;-47
2023/05/16 08:10:20;;;;;;;;;;;;;;;20.41;62.67;100429.00;7397500;19;1793;-47
2023/05/16 08:12:48;;;;;;;;;;;;;;;20.46;62.28;100453.59;7394806;19;1847;-47
2023/05/16 08:15:17;;;;;;;;;;;;;;;20.43;62.40;100427.88;7398960;19;1749;-47
2023/05/16 08:17:45;;;;;;;;;;;;;;;20.49;61.90;100449.75;7397389;19;1828;-47
2023/05/16 08:20:16;;;;;;;;;;;;;;;20.61;61.87;100432.41;7397068;19;1785;-48
2023/05/16 08:22:44;;;;;;;;;;;;;;;20.50;61.65;100438.03;7396638;19;1565;-47
2023/05/16 08:25:13;;;;;;;;;;;;;;;20.53;61.70;100446.63;7397257;19;1939;-47
2023/05/16 08:27:41;;;;;;;;;;;;;;;20.44;61.66;100426.88;7395294;19;1215;-47
2023/05/16 08:30:10;;;;;;;;;;;;;;;20.51;61.00;100432.47;7395650;19;1567;-47
2023/05/16 08:32:42;;;;;;;;;;;;;;;20.57;61.12;100437.25;7395121;19;1866;-47
2023/05/16 08:35:11;;;;;;;;;;;;;;;20.51;61.30;100432.47;7396323;19;1904;-47
2023/05/16 08:37:42;;;;;;;;;;;;;;;20.58;61.24;100443.47;7395027;19;1188;-47
2023/05/16 08:40:13;;;;;;;;;;;;;;;20.54;61.12;100431.34;7395541;19;1619;-47
2023/05/16 08:42:41;;;;;;;;;;;;;;;20.51;60.86;100424.41;7395218;19;1548;-47
2023/05/16 08:45:10;;;;;;;;;;;;;;;20.66;60.97;100446.25;7395898;19;1274;-47
2023/05/16 08:47:40;;;;;;;;;;;;;;;20.55;61.20;100423.13;7395966;19;1144;-47
2023/05/16 08:50:10;;;;;;;;;;;;;;;20.54;61.18;100437.53;7395715;19;1560;-47
2023/05/16 08:52:43;;;;;;;;;;;;;;;20.64;60.78;100430.28;7394037;19;1845;-47
2023/05/16 08:55:11;;;;;;;;;;;;;;;20.66;60.80;100438.19;7396443;19;1648;-47
2023/05/16 08:57:40;;;;;;;;;;;;;;;20.59;61.10;100426.34;7396568;19;1401;-47
2023/05/16 09:00:10;;;;;;;;;;;;;;;20.61;60.95;100422.53;7397367;19;1392;-47
2023/05/16 09:02:39;;;;;;;;;;;;;;;20.68;60.85;100420.06;7397472;19;942;-47
2023/05/16 09:05:10;;;;;;;;;;;;;;;20.72;60.96;100424.13;7395783;19;1955;-47
2023/05/16 09:07:38;;;;;;;;;;;;;;;20.56;61.05;100424.81;7395530;19;1856;-47
2023/05/16 09:10:09;;;;;;;;;;;;;;;20.52;61.40;100412.69;7396489;19;1643;-47
2023/05/16 09:12:38;;;;;;;;;;;;;;;20.49;61.43;100412.13;7394016;19;1984;-47
2023/05/16 09:15:07;;;;;;;;;;;;;;;20.39;61.38;100409.53;7400109;19;1798;-47
2023/05/16 09:17:37;;;;;;;;;;;;;;;20.49;61.25;100407.59;7404249;19;1800;-47
2023/05/16 09:20:10;;;;;;;;;;;;;;;20.43;61.36;100405.53;7403940;19;1965;-47
2023/05/16 09:22:38;;;;;;;;;;;;;;;20.49;61.59;100394.16;7403895;19;1797;-47
2023/05/16 09:25:10;;;;;;;;;;;;;;;20.48;61.40;100381.75;7403913;19;1821;-47
2023/05/16 09:27:39;;;;;;;;;;;;;;;20.58;61.14;100395.94;7402800;19;1694;-47
2023/05/16 09:30:08;;;;;;;;;;;;;;;20.56;61.00;100383.66;7403920;19;1131;-47
2023/05/16 09:32:36;;;;;;;;;;;;;;;20.47;61.52;100385.44;7401137;19;1878;-47
2023/05/16 09:35:04;;;;;;;;;;;;;;;20.59;61.02;100413.78;7403655;19;1544;-47
2023/05/16 09:37:33;;;;;;;;;;;;;;;20.49;61.30;100393.34;7403360;19;1431;-47
2023/05/16 09:40:01;;;;;;;;;;;;;;;20.47;61.32;100396.16;7403176;19;1604;-47
2023/05/16 09:42:32;;;;;;;;;;;;;;;20.50;61.43;100377.06;7401878;19;1576;-47
2023/05/16 09:45:02;;;;;;;;;;;;;;;20.49;61.44;100394.16;7402281;19;1887;-47
2023/05/16 09:47:30;;;;;;;;;;;;;;;20.46;61.38;100364.97;7402352;19;1231;-47
2023/05/16 09:49:58;;;;;;;;;;;;;;;20.55;61.24;100368.53;7402748;19;1560;-47
2023/05/16 09:52:28;;;;;;;;;;;;;;;20.57;61.08;100383.53;7400425;19;1845;-47
2023/05/16 09:54:56;;;;;;;;;;;;;;;20.60;61.08;100383.22;7401986;19;1675;-47
2023/05/16 09:57:25;;;;;;;;;;;;;;;20.60;61.08;100366.28;7403459;19;1021;-47
2023/05/16 09:59:56;;;;;;;;;;;;;;;20.61;60.89;100370.63;7402506;19;1619;-47
2023/05/16 10:02:25;;;;;;;;;;;;;;;20.63;60.74;100356.06;7403328;19;1624;-47
2023/05/16 10:04:53;;;;;;;;;;;;;;;20.58;61.22;100358.34;7402593;19;1126;-47
2023/05/16 10:07:23;;;;;;;;;;;;;;;20.56;61.26;100365.72;7402556;19;1951;-48
2023/05/16 10:09:52;;;;;;;;;;;;;;;20.54;61.18;100351.59;7403266;19;1671;-47
2023/05/16 10:12:21;;;;;;;;;;;;;;;20.49;61.22;100356.56;7401686;19;1853;-47
2023/05/16 10:14:50;;;;;;;;;;;;;;;20.66;60.81;100361.13;7402208;19;1734;-47
2023/05/16 10:17:21;;;;;;;;;;;;;;;20.60;60.82;100369.78;7402743;19;1825;-47
2023/05/16 10:19:50;;;;;;;;;;;;;;;20.54;61.15;100353.44;7402391;19;1788;-47
2023/05/16 10:22:18;;;;;;;;;;;;;;;20.53;61.10;100346.38;7402895;19;1691;-47
2023/05/16 10:24:50;;;;;;;;;;;;;;;20.44;61.31;100337.41;7401125;19;1004;-47
2023/05/16 10:27:19;;;;;;;;;;;;;;;20.62;60.93;100354.38;7400962;19;1030;-47
2023/05/16 10:29:47;;;;;;;;;;;;;;;20.62;60.92;100342.78;7400302;19;1801;-47
2023/05/16 10:32:16;;;;;;;;;;;;;;;20.52;61.19;100340.16;7400542;19;1970;-47
2023/05/16 10:34:48;;;;;;;;;;;;;;;20.59;61.08;100326.97;7401424;19;1932;-47
2023/05/16 10:37:16;;;;;;;;;;;;;;;20.61;60.78;100325.81;7402121;19;1742;-47
2023/05/16 10:39:44;;;;;;;;;;;;;;;20.64;60.82;100320.13;7400652;19;1397;-47
2023/05/16 10:42:17;;;;;;;;;;;;;;;20.51;60.99;100308.91;7401128;19;1476;-47
2023/05/16 10:44:45;;;;;;;;;;;;;;;20.54;61.01;100323.88;7402269;19;1778;-47
2023/05/16 10:47:13;;;;;;;;;;;;;;;20.51;61.13;100325.03;7401379;19;1381;-47
2023/05/16 10:49:42;;;;;;;;;;;;;;;20.49;61.17;100321.66;7402320;19;1738;-47
2023/05/16 10:52:16;;;;;;;;;;;;;;;20.55;61.04;100323.75;7400227;19;1854;-47
2023/05/16 10:54:45;;;;;;;;;;;;;;;20.72;60.79;100342.69;7402491;19;1063;-47
2023/05/16 10:57:18;;;;;;;;;;;;;;;20.82;60.28;100333.50;7401855;19;1579;-47
2023/05/16 10:59:47;;;;;;;;;;;;;;;20.73;60.58;100337.16;7402140;19;1936;-47
2023/05/16 11:02:31;;;;;;;;;;;;;;;20.69;60.73;100332.25;7400901;19;1524;-47
2023/05/16 11:05:00;;;;;;;;;;;;;;;20.63;60.82;100339.09;7399805;19;1784;-47
2023/05/16 11:07:33;;;;;;;;;;;;;;;20.68;60.67;100326.03;7400232;19;1286;-47
2023/05/16 11:10:06;;;;;;;;;;;;;;;20.60;60.81;100304.50;7399571;19;1171;-47
2023/05/16 11:12:49;;;;;;;;;;;;;;;20.63;60.55;100312.22;7398662;19;1842;-47
2023/05/16 11:15:26;;;;;;;;;;;;;;;20.58;60.64;100306.47;7400448;19;1593;-47
2023/05/16 11:18:06;;;;;;;;;;;;;;;20.60;60.76;100317.91;7400122;19;1271;-47
2023/05/16 11:20:35;;;;;;;;;;;;;;;20.58;60.61;100307.28;7399927;19;1540;-47
2023/05/16 11:23:19;;;;;;;;;;;;;;;20.54;60.87;100307.78;7399322;19;1571;-47
2023/05/16 11:25:52;;;;;;;;;;;;;;;20.55;60.27;100304.06;7399272;19;1757;-47
2023/05/16 11:28:21;;;;;;;;;;;;;;;20.39;60.79;100310.16;7396538;19;1837;-47
2023/05/16 11:30:50;;;;;;;;;;;;;;;20.34;61.04;100301.75;7400938;19;1726;-47
2023/05/16 11:33:19;;;;;;;;;;;;;;;20.39;60.78;100304.78;7398786;19;1855;-47
2023/05/16 11:36:01;;;;;;;;;;;;;;;20.48;60.57;100292.28;7399892;19;1747;-47
2023/05/16 11:38:32;;;;;;;;;;;;;;;20.45;60.76;100288.06;7399785;19;1027;-47
2023/05/16 11:41:07;;;;;;;;;;;;;;;20.48;60.73;100282.38;7400271;19;1956;-47
2023/05/16 11:43:42;;;;;;;;;;;;;;;20.46;60.92;100289.75;7399096;19;1603;-47
2023/05/16 11:46:12;;;;;;;;;;;;;;;20.36;61.17;100283.63;7399653;19;1849;-47
2023/05/16 11:48:41;;;;;;;;;;;;;;;20.34;61.00;100275.72;7400097;19;1398;-47
2023/05/16 11:51:10;;;;;;;;;;;;;;;20.41;61.01;100275.94;7399499;19;1788;-47
2023/05/16 11:53:38;;;;;;;;;;;;;;;20.52;60.66;100272.16;7397141;19;1857;-47
2023/05/16 11:56:11;;;;;;;;;;;;;;;20.44;60.72;100276.47;7397811;19;1267;-47
2023/05/16 11:58:40;;;;;;;;;;;;;;;20.47;60.62;100294.09;7398039;19;1549;-47
2023/05/16 12:01:10;;;;;;;;;;;;;;;20.48;60.92;100303.03;7397914;19;1218;-47
2023/05/16 12:03:38;;;;;;;;;;;;;;;20.39;61.40;100307.47;7395967;19;1393;-47
2023/05/16 12:06:06;;;;;;;;;;;;;;;20.28;61.67;100311.25;7397409;19;1301;-46
2023/05/16 12:08:35;;;;;;;;;;;;;;;20.32;61.79;100311.81;7396895;19;1960;-47
2023/05/16 12:11:03;;;;;;;;;;;;;;;20.39;61.81;100316.41;7394404;19;1583;-52
2023/05/16 12:13:34;;;;;;;;;;;;;;;20.35;61.87;100304.28;7396190;19;1838;-52
2023/05/16 12:16:02;;;;;;;;;;;;;;;20.46;61.84;100290.59;7397179;19;1647;-52
2023/05/16 12:18:31;;;;;;;;;;;;;;;20.48;61.81;100285.06;7397602;19;1469;-52
2023/05/16 12:20:59;;;;;;;;;;;;;;;20.54;62.11;100281.75;7397232;19;1441;-52
2023/05/16 12:23:29;;;;;;;;;;;;;;;20.65;61.80;100278.84;7395987;19;1282;-52
2023/05/16 12:26:00;;;;;;;;;;;;;;;20.64;62.15;100304.00;7396024;19;1195;-52
2023/05/16 12:28:32;;;;;;;;;;;;;;;20.79;62.05;100298.03;7395257;19;1717;-52
2023/05/16 12:31:03;;;;;;;;;;;;;;;20.65;62.26;100294.09;7396692;19;1595;-52
2023/05/16 12:33:32;;;;;;;;;;;;;;;20.68;62.31;100290.28;7395713;19;1857;-52
2023/05/16 12:36:00;;;;;;;;;;;;;;;20.65;62.36;100276.16;6873330;19;10000081;-52
2023/05/16 12:38:28;;;;;;;;;;;;;;;20.50;62.24;100279.53;7386755;19;1869;-47
2023/05/16 12:41:01;;;;;;;;;;;;;;;20.59;62.45;100290.22;7386364;19;1488;-47
2023/05/16 12:43:29;;;;;;;;;;;;;;;20.89;61.57;100277.31;7387560;19;1927;-47
2023/05/16 12:45:58;;;;;;;;;;;;;;;20.85;61.38;100278.63;7389050;19;1489;-47
2023/05/16 12:48:33;;;;;;;;;;;;;;;20.83;61.70;100294.03;7386436;19;1559;-47
2023/05/16 12:51:11;;;;;;;;;;;;;;;20.91;61.26;100288.72;7386170;19;1512;-47
2023/05/16 12:53:42;;;;;;;;;;;;;;;20.90;61.11;100275.44;7386407;19;1846;-47
2023/05/16 12:56:11;;;;;;;;;;;;;;;20.76;61.60;100280.41;7389397;19;1500;-47
2023/05/16 12:58:40;;;;;;;;;;;;;;;20.92;61.02;100287.72;7387857;19;1615;-47